createdAt,value
2018-11-29T00:02:29.131Z,1.10
2018-11-29T00:05:04.073Z,1.10
2018-11-29T00:07:39.319Z,1.00
2018-11-29T00:10:13.977Z,1.20
2018-11-29T00:12:48.491Z,1.20
2018-11-29T00:15:23.162Z,0.90
2018-11-29T00:17:57.879Z,1.00
2018-11-29T00:20:33.059Z,0.90
2018-11-29T00:23:07.180Z,1.00
2018-11-29T00:25:41.774Z,1.00
2018-11-29T00:28:16.536Z,1.00
2018-11-29T00:30:51.237Z,1.00
2018-11-29T00:33:26.239Z,1.10
2018-11-29T00:36:00.836Z,0.90
2018-11-29T00:38:35.623Z,1.10
2018-11-29T00:41:10.394Z,1.00
2018-11-29T00:43:45.063Z,1.20
2018-11-29T00:46:19.658Z,1.00
2018-11-29T00:48:54.627Z,0.90
2018-11-29T00:51:29.171Z,1.10
2018-11-29T00:54:03.986Z,1.00
2018-11-29T00:56:38.268Z,0.90
2018-11-29T00:59:12.948Z,0.80
2018-11-29T01:01:52.933Z,0.90
2018-11-29T01:04:27.755Z,0.90
2018-11-29T01:07:02.669Z,1.00
2018-11-29T01:09:37.397Z,0.80
2018-11-29T01:12:12.042Z,0.90
2018-11-29T01:14:47.189Z,0.90
2018-11-29T01:17:21.307Z,0.90
2018-11-29T01:19:55.950Z,1.00
2018-11-29T01:22:30.603Z,0.80
2018-11-29T01:25:07.103Z,1.00
2018-11-29T01:27:44.035Z,0.90
2018-11-29T01:30:20.103Z,0.90
2018-11-29T01:32:55.094Z,1.00
2018-11-29T01:35:29.762Z,1.00
2018-11-29T01:38:04.491Z,1.00
2018-11-29T01:40:39.004Z,0.90
2018-11-29T01:43:13.723Z,0.90
2018-11-29T01:45:48.548Z,1.00
2018-11-29T01:48:23.135Z,1.00
2018-11-29T01:50:58.039Z,1.00
2018-11-29T01:53:32.712Z,0.80
2018-11-29T01:56:07.417Z,0.70
2018-11-29T01:58:42.291Z,0.80
2018-11-29T02:01:17.132Z,0.60
2018-11-29T02:03:51.703Z,0.80
2018-11-29T02:06:26.448Z,0.90
2018-11-29T02:09:01.072Z,0.80
2018-11-29T02:11:35.627Z,0.80
2018-11-29T02:14:10.315Z,1.00
2018-11-29T02:16:44.968Z,0.90
2018-11-29T02:19:19.658Z,0.80
2018-11-29T02:22:01.467Z,0.70
2018-11-29T02:24:36.495Z,0.80
2018-11-29T02:27:11.585Z,0.70
2018-11-29T02:29:45.912Z,0.70
2018-11-29T02:32:20.678Z,0.80
2018-11-29T02:34:55.016Z,0.70
2018-11-29T02:37:29.716Z,0.60
2018-11-29T02:40:07.112Z,0.80
2018-11-29T02:42:42.512Z,0.70
2018-11-29T02:45:20.379Z,0.70
2018-11-29T02:47:55.315Z,0.80
2018-11-29T02:50:29.944Z,0.80
2018-11-29T02:53:04.519Z,0.50
2018-11-29T02:55:39.310Z,0.90
2018-11-29T02:58:14.007Z,0.70
2018-11-29T03:00:48.698Z,0.70
2018-11-29T03:03:23.289Z,0.80
2018-11-29T03:05:57.945Z,0.80
2018-11-29T03:08:33.113Z,0.60
2018-11-29T03:11:08.240Z,0.50
2018-11-29T03:13:43.541Z,0.80
2018-11-29T03:16:17.924Z,0.60
2018-11-29T03:18:52.659Z,0.70
2018-11-29T03:21:27.331Z,0.60
2018-11-29T03:24:01.993Z,0.60
2018-11-29T03:26:36.912Z,0.80
2018-11-29T03:29:11.647Z,0.70
2018-11-29T03:31:45.989Z,0.60
2018-11-29T03:34:20.804Z,0.60
2018-11-29T03:36:55.985Z,0.60
2018-11-29T03:39:30.365Z,0.70
2018-11-29T03:42:05.462Z,0.70
2018-11-29T03:44:40.314Z,0.70
2018-11-29T03:47:15.393Z,0.70
2018-11-29T03:49:49.584Z,0.50
2018-11-29T03:52:24.215Z,0.70
2018-11-29T03:54:58.926Z,0.70
2018-11-29T03:57:33.959Z,0.60
2018-11-29T04:00:14.735Z,0.60
2018-11-29T04:02:49.051Z,0.60
2018-11-29T04:05:23.591Z,0.60
2018-11-29T04:07:58.844Z,0.50
2018-11-29T04:10:33.131Z,0.50
2018-11-29T04:13:07.955Z,0.50
2018-11-29T04:15:42.603Z,0.40
2018-11-29T04:18:17.129Z,0.40
2018-11-29T04:20:51.619Z,0.40
2018-11-29T04:23:26.109Z,0.40
2018-11-29T04:26:00.769Z,0.50
2018-11-29T04:28:35.236Z,0.40
2018-11-29T04:31:09.895Z,0.40
2018-11-29T04:33:45.078Z,0.20
2018-11-29T04:36:19.387Z,0.30
2018-11-29T04:38:54.967Z,0.30
2018-11-29T04:41:30.476Z,0.40
2018-11-29T04:44:05.499Z,0.30
2018-11-29T04:46:48.047Z,0.50
2018-11-29T04:49:22.434Z,0.40
2018-11-29T04:51:57.479Z,0.50
2018-11-29T04:54:31.619Z,0.40
2018-11-29T04:57:07.107Z,0.50
2018-11-29T04:59:42.600Z,0.30
2018-11-29T05:02:17.224Z,0.50
2018-11-29T05:04:51.790Z,0.40
2018-11-29T05:07:26.883Z,0.30
2018-11-29T05:10:01.099Z,0.20
2018-11-29T05:12:35.797Z,0.40
2018-11-29T05:15:11.051Z,0.40
2018-11-29T05:17:46.130Z,0.40
2018-11-29T05:20:20.695Z,0.30
2018-11-29T05:22:55.692Z,0.30
2018-11-29T05:25:30.002Z,0.20
2018-11-29T05:28:05.347Z,0.20
2018-11-29T05:30:40.503Z,0.20
2018-11-29T05:33:15.411Z,0.30
2018-11-29T05:35:49.743Z,0.30
2018-11-29T05:38:24.423Z,0.20
2018-11-29T05:40:59.235Z,0.30
2018-11-29T05:43:34.336Z,0.10
2018-11-29T05:46:09.428Z,0.10
2018-11-29T05:48:44.041Z,0.20
2018-11-29T05:51:18.699Z,0.20
2018-11-29T05:53:53.427Z,0.00
2018-11-29T05:56:27.915Z,0.20
2018-11-29T05:59:03.082Z,0.00
2018-11-29T06:01:39.536Z,0.30
2018-11-29T06:04:13.662Z,0.20
2018-11-29T06:06:48.193Z,0.10
2018-11-29T06:09:22.804Z,0.10
2018-11-29T06:11:57.518Z,0.30
2018-11-29T06:14:32.433Z,0.10
2018-11-29T06:17:14.231Z,0.20
2018-11-29T06:19:48.687Z,0.00
2018-11-29T06:22:23.919Z,0.10
2018-11-29T06:24:58.543Z,0.10
2018-11-29T06:27:33.281Z,0.20
2018-11-29T06:30:14.703Z,0.10
2018-11-29T06:32:50.494Z,0.10
2018-11-29T06:35:25.424Z,0.00
2018-11-29T06:38:00.117Z,-0.10
2018-11-29T06:40:35.969Z,-0.20
2018-11-29T06:43:10.255Z,-0.10
2018-11-29T06:45:44.730Z,-0.20
2018-11-29T06:48:19.391Z,-0.10
2018-11-29T06:50:54.578Z,-0.10
2018-11-29T06:53:34.473Z,-0.10
2018-11-29T06:56:09.767Z,-0.30
2018-11-29T06:58:44.023Z,-0.10
2018-11-29T07:01:19.446Z,-0.10
2018-11-29T07:03:54.186Z,0.00
2018-11-29T07:06:29.692Z,-0.20
2018-11-29T07:09:07.364Z,0.00
2018-11-29T07:11:42.107Z,0.00
2018-11-29T07:14:17.214Z,-0.20
2018-11-29T07:16:51.926Z,-0.20
2018-11-29T07:19:26.565Z,0.20
2018-11-29T07:22:01.280Z,0.00
2018-11-29T07:24:36.702Z,0.00
2018-11-29T07:27:11.753Z,0.10
2018-11-29T07:29:46.125Z,0.10
2018-11-29T07:32:23.658Z,0.10
2018-11-29T07:34:58.158Z,0.30
2018-11-29T07:37:33.015Z,0.30
2018-11-29T07:40:13.714Z,0.40
2018-11-29T07:42:51.843Z,0.50
2018-11-29T07:45:26.559Z,0.60
2018-11-29T07:48:01.554Z,0.70
2018-11-29T07:50:35.835Z,0.70
2018-11-29T07:53:10.761Z,1.10
2018-11-29T07:55:45.141Z,1.10
2018-11-29T07:58:19.766Z,1.10
2018-11-29T08:00:54.269Z,1.20
2018-11-29T08:03:29.000Z,1.30
2018-11-29T08:06:03.787Z,1.40
2018-11-29T08:08:38.442Z,1.60
2018-11-29T08:11:13.782Z,1.80
2018-11-29T08:13:48.640Z,1.70
2018-11-29T08:16:24.007Z,1.70
2018-11-29T08:18:59.059Z,1.70
2018-11-29T08:21:33.725Z,1.70
2018-11-29T08:24:08.779Z,1.90
2018-11-29T08:26:43.086Z,1.60
2018-11-29T08:29:17.801Z,1.70
2018-11-29T08:31:52.599Z,1.80
2018-11-29T08:34:27.498Z,1.70
2018-11-29T08:37:02.203Z,1.90
2018-11-29T08:39:36.741Z,2.10
2018-11-29T08:42:11.447Z,2.30
2018-11-29T08:44:46.057Z,2.40
2018-11-29T08:47:20.769Z,2.60
2018-11-29T08:49:55.247Z,2.70
2018-11-29T08:52:29.852Z,2.80
2018-11-29T08:55:07.338Z,2.90
2018-11-29T08:57:42.290Z,3.00
2018-11-29T09:00:18.326Z,3.00
2018-11-29T09:02:53.367Z,3.00
2018-11-29T09:05:27.881Z,3.10
2018-11-29T09:08:02.538Z,3.20
2018-11-29T09:10:37.127Z,3.40
2018-11-29T09:13:11.652Z,3.40
2018-11-29T09:15:46.379Z,3.50
2018-11-29T09:18:21.028Z,3.50
2018-11-29T09:20:55.790Z,3.60
2018-11-29T09:23:30.556Z,3.80
2018-11-29T09:26:06.835Z,3.90
2018-11-29T09:28:41.124Z,3.90
2018-11-29T09:31:16.087Z,4.10
2018-11-29T09:33:51.113Z,4.30
2018-11-29T09:36:25.840Z,4.40
2018-11-29T09:39:00.693Z,4.50
2018-11-29T09:41:35.918Z,4.60
2018-11-29T09:44:10.944Z,4.70
2018-11-29T09:46:45.539Z,4.70
2018-11-29T09:49:20.144Z,4.60
2018-11-29T09:51:54.837Z,4.60
2018-11-29T09:54:29.450Z,4.70
2018-11-29T09:57:03.986Z,4.70
2018-11-29T09:59:38.652Z,4.70
2018-11-29T10:02:13.279Z,4.70
2018-11-29T10:04:47.888Z,4.70
2018-11-29T10:07:23.351Z,4.50
2018-11-29T10:09:58.243Z,4.40
2018-11-29T10:12:33.140Z,4.20
2018-11-29T10:15:10.162Z,4.20
2018-11-29T10:17:45.171Z,4.10
2018-11-29T10:20:19.771Z,4.00
2018-11-29T10:22:54.923Z,4.00
2018-11-29T10:25:29.889Z,4.10
2018-11-29T10:28:08.286Z,4.00
2018-11-29T10:30:50.364Z,4.00
2018-11-29T10:33:25.609Z,4.00
2018-11-29T10:36:00.000Z,3.90
2018-11-29T10:38:35.079Z,4.00
2018-11-29T10:41:09.877Z,4.00
2018-11-29T10:43:44.635Z,4.10
2018-11-29T10:46:18.983Z,4.10
2018-11-29T10:48:53.804Z,4.10
2018-11-29T10:51:28.083Z,4.10
2018-11-29T10:54:02.611Z,4.00
2018-11-29T10:56:37.051Z,4.10
2018-11-29T10:59:11.869Z,4.10
2018-11-29T11:02:50.155Z,4.10
2018-11-29T11:05:24.469Z,4.10
2018-11-29T11:07:59.016Z,4.00
2018-11-29T11:10:33.982Z,4.00
2018-11-29T11:13:08.281Z,4.10
2018-11-29T11:15:42.980Z,4.10
2018-11-29T11:18:18.051Z,4.10
2018-11-29T11:20:52.357Z,4.10
2018-11-29T11:23:27.019Z,4.10
2018-11-29T11:26:01.836Z,4.10
2018-11-29T11:28:36.051Z,4.10
2018-11-29T11:31:10.752Z,4.00
2018-11-29T11:33:46.227Z,4.10
2018-11-29T11:36:21.128Z,4.00
2018-11-29T11:38:55.624Z,4.00
2018-11-29T11:41:30.847Z,3.90
2018-11-29T11:44:05.907Z,4.00
2018-11-29T11:46:40.686Z,3.90
2018-11-29T11:49:14.953Z,3.90
2018-11-29T11:51:49.928Z,3.90
2018-11-29T11:54:24.312Z,3.90
2018-11-29T11:56:59.060Z,3.90
2018-11-29T11:59:33.703Z,3.90
2018-11-29T12:02:08.308Z,3.90
2018-11-29T12:04:42.849Z,3.90
2018-11-29T12:07:17.700Z,4.00
2018-11-29T12:09:52.083Z,3.90
2018-11-29T12:12:26.608Z,4.00
2018-11-29T12:15:01.252Z,3.90
2018-11-29T12:17:36.095Z,3.90
2018-11-29T12:20:16.834Z,3.90
2018-11-29T12:22:51.591Z,4.00
2018-11-29T12:25:25.787Z,4.40
2018-11-29T12:28:01.378Z,4.40
2018-11-29T12:30:40.267Z,4.30
2018-11-29T12:33:15.823Z,4.20
2018-11-29T12:35:50.584Z,4.10
2018-11-29T12:38:25.414Z,4.00
2018-11-29T12:40:59.893Z,4.00
2018-11-29T12:43:35.275Z,4.00
2018-11-29T12:46:09.449Z,4.00
2018-11-29T12:48:44.263Z,3.90
2018-11-29T12:51:18.840Z,3.90
2018-11-29T12:53:53.538Z,3.90
2018-11-29T12:56:29.037Z,3.80
2018-11-29T12:59:04.267Z,3.90
2018-11-29T13:01:38.676Z,3.90
2018-11-29T13:04:13.148Z,3.90
2018-11-29T13:06:47.838Z,3.90
2018-11-29T13:09:22.910Z,4.00
2018-11-29T13:11:58.074Z,3.90
2018-11-29T13:14:33.452Z,3.90
2018-11-29T13:17:07.721Z,3.90
2018-11-29T13:19:42.561Z,3.80
2018-11-29T13:22:17.417Z,3.70
2018-11-29T13:24:52.364Z,3.70
2018-11-29T13:27:27.089Z,3.70
2018-11-29T13:30:01.955Z,3.70
2018-11-29T13:32:36.777Z,3.70
2018-11-29T13:35:29.947Z,3.70
2018-11-29T13:38:10.728Z,3.80
2018-11-29T13:40:47.566Z,3.70
2018-11-29T13:43:22.240Z,3.60
2018-11-29T13:45:56.935Z,3.60
2018-11-29T13:48:32.274Z,3.60
2018-11-29T13:51:07.169Z,3.60
2018-11-29T13:53:41.917Z,3.60
2018-11-29T13:56:16.867Z,3.60
2018-11-29T13:58:51.159Z,3.60
2018-11-29T14:01:25.787Z,3.50
2018-11-29T14:04:00.504Z,3.40
2018-11-29T14:06:35.067Z,3.40
2018-11-29T14:09:10.139Z,3.30
2018-11-29T14:11:44.522Z,3.30
2018-11-29T14:14:19.015Z,3.20
2018-11-29T14:16:53.607Z,3.20
2018-11-29T14:19:28.092Z,3.10
2018-11-29T14:22:02.981Z,3.10
2018-11-29T14:24:37.511Z,3.10
2018-11-29T14:27:12.139Z,3.10
2018-11-29T14:29:46.846Z,3.00
2018-11-29T14:32:21.420Z,3.00
2018-11-29T14:34:55.939Z,3.00
2018-11-29T14:37:30.624Z,2.90
2018-11-29T14:40:10.856Z,2.90
2018-11-29T14:42:45.346Z,2.90
2018-11-29T14:45:23.451Z,2.90
2018-11-29T14:47:58.447Z,2.90
2018-11-29T14:50:38.682Z,2.90
2018-11-29T14:53:13.479Z,2.80
2018-11-29T14:55:48.226Z,2.70
2018-11-29T14:58:22.899Z,2.70
2018-11-29T15:00:58.573Z,2.70
2018-11-29T15:03:33.542Z,2.60
2018-11-29T15:06:07.887Z,2.60
2018-11-29T15:08:42.495Z,2.50
2018-11-29T15:11:17.550Z,2.50
2018-11-29T15:13:52.642Z,2.50
2018-11-29T15:16:27.343Z,2.50
2018-11-29T15:19:02.100Z,2.50
2018-11-29T15:21:36.715Z,2.40
2018-11-29T15:24:11.609Z,2.40
2018-11-29T15:26:46.073Z,2.30
2018-11-29T15:29:21.258Z,2.30
2018-11-29T15:31:55.627Z,2.30
2018-11-29T15:37:11.519Z,2.20
2018-11-29T15:39:46.019Z,2.10
2018-11-29T15:42:21.027Z,2.10
2018-11-29T15:44:55.655Z,2.10
2018-11-29T15:47:30.188Z,2.10
2018-11-29T15:50:10.952Z,2.20
2018-11-29T15:52:45.368Z,2.00
2018-11-29T15:55:21.837Z,1.90
2018-11-29T15:57:56.631Z,1.90
2018-11-29T16:00:31.302Z,1.90
2018-11-29T16:03:08.102Z,1.90
2018-11-29T16:05:43.405Z,2.00
2018-11-29T16:08:17.767Z,1.90
2018-11-29T16:10:52.921Z,1.90
2018-11-29T16:13:28.191Z,1.80
2018-11-29T16:16:02.339Z,2.10
2018-11-29T16:18:36.892Z,2.00
2018-11-29T16:21:11.350Z,1.80
2018-11-29T16:23:46.238Z,1.70
2018-11-29T16:26:20.563Z,1.90
2018-11-29T16:28:56.329Z,2.00
2018-11-29T16:31:30.571Z,1.70
2018-11-29T16:34:05.350Z,1.90
2018-11-29T16:36:39.832Z,1.70
2018-11-29T16:39:14.947Z,1.70
2018-11-29T16:41:49.799Z,1.90
2018-11-29T16:44:24.363Z,1.90
2018-11-29T16:46:58.909Z,1.70
2018-11-29T16:49:33.563Z,1.70
2018-11-29T16:52:08.204Z,1.60
2018-11-29T16:54:42.772Z,1.70
2018-11-29T16:57:17.307Z,1.70
2018-11-29T16:59:52.120Z,1.90
2018-11-29T17:02:26.405Z,1.90
2018-11-29T17:05:00.930Z,1.70
2018-11-29T17:07:35.491Z,2.00
2018-11-29T17:10:12.747Z,1.80
2018-11-29T17:12:52.820Z,1.70
2018-11-29T17:15:27.351Z,1.90
2018-11-29T17:18:02.278Z,1.80
2018-11-29T17:20:36.960Z,1.70
2018-11-29T17:23:12.136Z,1.70
2018-11-29T17:25:46.989Z,1.50
2018-11-29T17:28:21.424Z,1.50
2018-11-29T17:30:56.339Z,1.50
2018-11-29T17:33:31.428Z,1.50
2018-11-29T17:36:06.119Z,1.50
2018-11-29T17:38:40.681Z,1.50
2018-11-29T17:41:15.348Z,1.70
2018-11-29T17:43:49.855Z,1.50
2018-11-29T17:46:24.711Z,1.70
2018-11-29T17:48:58.938Z,1.70
2018-11-29T17:51:36.828Z,1.60
2018-11-29T17:54:11.006Z,1.80
2018-11-29T17:56:45.999Z,1.60
2018-11-29T17:59:20.372Z,1.50
2018-11-29T18:01:54.932Z,1.60
2018-11-29T18:04:29.835Z,1.70
2018-11-29T18:07:06.628Z,1.70
2018-11-29T18:09:41.033Z,1.60
2018-11-29T18:12:15.868Z,1.60
2018-11-29T18:14:50.059Z,1.50
2018-11-29T18:17:24.661Z,1.50
2018-11-29T18:19:59.224Z,1.50
2018-11-29T18:22:33.859Z,1.60
2018-11-29T18:25:11.811Z,1.50
2018-11-29T18:27:49.479Z,1.50
2018-11-29T18:30:24.456Z,1.50
2018-11-29T18:32:59.049Z,1.70
2018-11-29T18:35:33.850Z,1.50
2018-11-29T18:38:08.350Z,1.60
2018-11-29T18:40:42.995Z,1.50
2018-11-29T18:43:17.863Z,1.50
2018-11-29T18:45:52.272Z,1.50
2018-11-29T18:48:26.862Z,1.40
2018-11-29T18:51:01.567Z,1.60
2018-11-29T18:53:36.471Z,1.40
2018-11-29T18:56:11.520Z,1.50
2018-11-29T18:58:46.068Z,1.60
2018-11-29T19:01:20.635Z,1.50
2018-11-29T19:03:55.184Z,1.70
2018-11-29T19:06:29.815Z,1.30
2018-11-29T19:09:07.503Z,1.60
2018-11-29T19:11:41.846Z,1.50
2018-11-29T19:14:16.501Z,1.30
2018-11-29T19:16:51.219Z,1.60
2018-11-29T19:19:25.925Z,1.50
2018-11-29T19:22:00.484Z,1.60
2018-11-29T19:24:35.094Z,1.40
2018-11-29T19:27:09.780Z,1.60
2018-11-29T19:29:44.420Z,1.60
2018-11-29T19:32:19.005Z,1.50
2018-11-29T19:34:53.928Z,1.60
2018-11-29T19:37:28.111Z,1.60
2018-11-29T19:40:03.682Z,1.50
2018-11-29T19:42:38.515Z,1.60
2018-11-29T19:45:15.567Z,1.70
2018-11-29T19:47:51.501Z,1.70
2018-11-29T19:50:26.316Z,1.40
2018-11-29T19:53:03.698Z,1.40
2018-11-29T19:55:38.602Z,1.50
2018-11-29T19:58:14.851Z,1.70
2018-11-29T20:00:50.604Z,1.60
2018-11-29T20:03:26.705Z,1.70
2018-11-29T20:06:02.980Z,1.80
2018-11-29T20:08:38.549Z,1.70
2018-11-29T20:11:14.932Z,1.80
2018-11-29T20:13:50.876Z,1.40
2018-11-29T20:16:26.245Z,1.70
2018-11-29T20:19:01.921Z,1.70
2018-11-29T20:21:37.675Z,1.70
2018-11-29T20:24:12.548Z,1.70
2018-11-29T20:26:47.480Z,1.90
2018-11-29T20:29:22.527Z,1.70
2018-11-29T20:31:57.157Z,1.90
2018-11-29T20:34:31.820Z,1.80
2018-11-29T20:37:06.696Z,1.70
2018-11-29T20:39:41.003Z,1.80
2018-11-29T20:42:15.470Z,1.70
2018-11-29T20:44:49.750Z,2.00
2018-11-29T20:47:25.243Z,1.80
2018-11-29T20:49:59.820Z,1.80
2018-11-29T20:52:35.316Z,1.80
2018-11-29T20:55:12.347Z,1.90
2018-11-29T20:57:46.484Z,1.70
2018-11-29T21:00:21.228Z,1.80
2018-11-29T21:02:55.730Z,1.70
2018-11-29T21:05:30.477Z,1.60
2018-11-29T21:08:06.594Z,1.50
2018-11-29T21:10:41.753Z,1.70
2018-11-29T21:13:16.915Z,1.70
2018-11-29T21:15:51.938Z,1.80
2018-11-29T21:18:26.224Z,1.80
2018-11-29T21:21:00.757Z,1.50
2018-11-29T21:23:35.163Z,1.80
2018-11-29T21:26:09.791Z,1.60
2018-11-29T21:28:44.242Z,1.60
2018-11-29T21:31:18.706Z,1.90
2018-11-29T21:33:53.215Z,1.80
2018-11-29T21:36:27.901Z,1.70
2018-11-29T21:39:02.731Z,1.30
2018-11-29T21:41:37.160Z,1.60
2018-11-29T21:44:12.124Z,1.80
2018-11-29T21:46:46.323Z,1.70
2018-11-29T21:49:21.273Z,1.70
2018-11-29T21:51:56.299Z,1.70
2018-11-29T21:54:31.003Z,1.90
2018-11-29T21:57:05.774Z,1.70
2018-11-29T21:59:40.389Z,1.90
2018-11-29T22:02:15.155Z,1.80
2018-11-29T22:04:49.628Z,1.90
2018-11-29T22:07:24.236Z,1.90
2018-11-29T22:09:59.145Z,1.80
2018-11-29T22:12:33.418Z,1.80
2018-11-29T22:15:10.890Z,1.70
2018-11-29T22:18:29.704Z,1.80
2018-11-29T22:21:05.457Z,1.70
2018-11-29T22:23:40.803Z,1.80
2018-11-29T22:26:16.500Z,1.90
2018-11-29T22:28:50.652Z,1.70
2018-11-29T22:31:25.287Z,1.60
2018-11-29T22:34:00.083Z,1.70
2018-11-29T22:36:34.422Z,1.70
2018-11-29T22:39:09.707Z,1.80
2018-11-29T22:41:44.351Z,1.70
2018-11-29T22:44:18.953Z,1.60
2018-11-29T22:46:53.714Z,1.80
2018-11-29T22:49:28.238Z,1.70
2018-11-29T22:52:02.824Z,1.70
2018-11-29T22:54:37.424Z,1.60
2018-11-29T22:57:12.075Z,1.90
2018-11-29T22:59:46.880Z,1.70
2018-11-29T23:02:21.625Z,1.60
2018-11-29T23:04:55.865Z,1.80
2018-11-29T23:07:30.418Z,1.80
2018-11-29T23:10:07.727Z,1.90
2018-11-29T23:12:42.715Z,1.60
2018-11-29T23:15:17.657Z,1.80
2018-11-29T23:17:51.823Z,1.90
2018-11-29T23:20:26.190Z,1.70
2018-11-29T23:23:00.903Z,1.70
2018-11-29T23:25:35.620Z,1.70
2018-11-29T23:28:10.442Z,1.60
2018-11-29T23:30:44.689Z,1.80
2018-11-29T23:33:19.363Z,1.80
2018-11-29T23:35:53.832Z,1.60
2018-11-29T23:38:28.548Z,1.90
2018-11-29T23:41:02.894Z,1.80
2018-11-29T23:43:37.448Z,1.80
2018-11-29T23:46:11.915Z,1.70
2018-11-29T23:48:46.551Z,1.70
2018-11-29T23:51:21.035Z,1.90
2018-11-29T23:53:55.410Z,1.80
2018-11-29T23:56:29.816Z,2.00
2018-11-29T23:59:04.790Z,1.80
